createdAt,value
2023-09-12T00:02:22.716Z,21.13
2023-09-12T00:04:53.341Z,21.08
2023-09-12T00:07:24.036Z,21.06
2023-09-12T00:09:54.745Z,21.03
2023-09-12T00:12:26.930Z,21.04
2023-09-12T00:14:57.845Z,21.02
2023-09-12T00:17:29.056Z,20.90
2023-09-12T00:19:59.790Z,20.90
2023-09-12T00:22:30.490Z,20.92
2023-09-12T00:25:01.712Z,20.97
2023-09-12T00:27:32.527Z,20.96
2023-09-12T00:30:03.927Z,20.96
2023-09-12T00:32:34.759Z,20.96
2023-09-12T00:35:05.938Z,20.92
2023-09-12T00:37:36.718Z,20.91
2023-09-12T00:40:09.509Z,20.92
2023-09-12T00:42:40.176Z,20.94
2023-09-12T00:45:12.266Z,20.95
2023-09-12T00:47:43.186Z,20.93
2023-09-12T00:50:15.443Z,20.89
2023-09-12T00:52:47.285Z,20.87
2023-09-12T00:55:18.708Z,20.88
2023-09-12T00:57:49.902Z,20.88
2023-09-12T01:00:20.931Z,20.88
2023-09-12T01:02:54.422Z,20.85
2023-09-12T01:05:26.282Z,20.84
2023-09-12T01:07:57.683Z,20.79
2023-09-12T01:10:28.788Z,20.72
2023-09-12T01:12:59.520Z,20.67
2023-09-12T01:15:30.264Z,20.62
2023-09-12T01:18:01.784Z,20.57
2023-09-12T01:20:36.274Z,20.50
2023-09-12T01:23:31.978Z,20.35
2023-09-12T01:26:27.852Z,20.24
2023-09-12T01:29:01.671Z,20.09
2023-09-12T01:31:34.302Z,20.07
2023-09-12T01:34:13.625Z,20.10
2023-09-12T01:36:44.329Z,20.11
2023-09-12T01:39:15.238Z,20.07
2023-09-12T01:41:49.914Z,19.95
2023-09-12T01:44:24.189Z,19.92
2023-09-12T01:46:55.759Z,19.95
2023-09-12T01:49:29.149Z,20.01
2023-09-12T01:52:00.980Z,20.07
2023-09-12T01:54:32.604Z,20.09
2023-09-12T01:57:04.860Z,20.10
2023-09-12T01:59:35.769Z,20.12
2023-09-12T02:02:08.102Z,20.13
2023-09-12T02:04:38.839Z,20.14
2023-09-12T02:07:09.443Z,20.14
2023-09-12T02:09:40.131Z,20.15
2023-09-12T02:12:11.245Z,20.15
2023-09-12T02:14:42.065Z,20.15
2023-09-12T02:17:12.952Z,20.14
2023-09-12T02:19:43.737Z,20.14
2023-09-12T02:22:14.401Z,20.14
2023-09-12T02:24:45.045Z,20.14
2023-09-12T02:27:15.721Z,20.12
2023-09-12T02:29:46.513Z,20.08
2023-09-12T02:32:17.286Z,20.05
2023-09-12T02:34:48.188Z,20.03
2023-09-12T02:37:18.773Z,20.02
2023-09-12T02:39:49.508Z,20.04
2023-09-12T02:42:20.215Z,20.05
2023-09-12T02:44:50.976Z,20.04
2023-09-12T02:47:21.610Z,20.00
2023-09-12T02:49:52.245Z,19.98
2023-09-12T02:52:23.294Z,19.94
2023-09-12T02:54:54.005Z,19.89
2023-09-12T02:57:25.368Z,19.85
2023-09-12T02:59:56.105Z,19.82
2023-09-12T03:02:26.981Z,19.80
2023-09-12T03:04:57.972Z,19.77
2023-09-12T03:07:28.967Z,19.76
2023-09-12T03:09:59.808Z,19.75
2023-09-12T03:12:30.501Z,19.75
2023-09-12T03:15:01.376Z,19.68
2023-09-12T03:17:33.260Z,19.60
2023-09-12T03:20:07.468Z,19.59
2023-09-12T03:22:39.352Z,19.62
2023-09-12T03:25:11.250Z,19.66
2023-09-12T03:27:42.048Z,19.70
2023-09-12T03:30:14.633Z,19.71
2023-09-12T03:32:45.573Z,19.65
2023-09-12T03:35:16.611Z,19.64
2023-09-12T03:37:47.214Z,19.63
2023-09-12T03:40:18.322Z,19.63
2023-09-12T03:42:49.181Z,19.65
2023-09-12T03:45:20.777Z,19.64
2023-09-12T03:47:51.524Z,19.66
2023-09-12T03:50:22.383Z,19.70
2023-09-12T03:52:53.153Z,19.72
2023-09-12T03:55:23.947Z,19.69
2023-09-12T03:57:54.530Z,19.65
2023-09-12T04:00:25.654Z,19.66
2023-09-12T04:02:56.353Z,19.69
2023-09-12T04:05:27.719Z,19.68
2023-09-12T04:07:58.420Z,19.64
2023-09-12T04:10:29.435Z,19.57
2023-09-12T04:13:00.229Z,19.53
2023-09-12T04:15:31.168Z,19.51
2023-09-12T04:18:02.298Z,19.52
2023-09-12T04:20:33.529Z,19.53
2023-09-12T04:23:06.019Z,19.53
2023-09-12T04:25:36.985Z,19.54
2023-09-12T04:28:08.913Z,19.55
2023-09-12T04:30:40.956Z,19.53
2023-09-12T04:33:10.223Z,19.50
2023-09-12T04:35:40.848Z,19.47
2023-09-12T04:38:11.550Z,19.46
2023-09-12T04:40:43.200Z,19.46
2023-09-12T04:43:13.849Z,19.45
2023-09-12T04:45:44.597Z,19.46
2023-09-12T04:48:15.435Z,19.44
2023-09-12T04:50:47.022Z,19.43
2023-09-12T04:53:16.860Z,19.38
2023-09-12T04:55:47.812Z,19.35
2023-09-12T04:58:18.472Z,19.35
2023-09-12T05:00:49.779Z,19.37
2023-09-12T05:03:20.628Z,19.40
2023-09-12T05:05:52.312Z,19.44
2023-09-12T05:08:23.781Z,19.49
2023-09-12T05:10:54.569Z,19.59
2023-09-12T05:13:25.907Z,19.69
2023-09-12T05:15:57.042Z,19.77
2023-09-12T05:18:28.743Z,19.87
2023-09-12T05:20:59.646Z,19.95
2023-09-12T05:23:30.480Z,20.04
2023-09-12T05:26:02.056Z,20.08
2023-09-12T05:28:32.676Z,20.10
2023-09-12T05:31:04.374Z,20.14
2023-09-12T05:33:36.742Z,20.17
2023-09-12T05:36:08.439Z,20.19
2023-09-12T05:38:39.204Z,20.18
2023-09-12T05:41:09.869Z,20.13
2023-09-12T05:43:40.847Z,20.06
2023-09-12T05:46:11.585Z,20.10
2023-09-12T05:48:42.712Z,20.28
2023-09-12T05:51:13.811Z,20.47
2023-09-12T05:53:44.693Z,20.64
2023-09-12T05:56:15.321Z,20.78
2023-09-12T05:58:46.071Z,20.94
2023-09-12T06:01:16.863Z,21.21
2023-09-12T06:03:47.869Z,21.49
2023-09-12T06:06:19.160Z,21.78
2023-09-12T06:08:49.805Z,21.96
2023-09-12T06:11:20.569Z,22.20
2023-09-12T06:13:51.306Z,22.50
2023-09-12T06:16:22.045Z,22.80
2023-09-12T06:18:54.865Z,23.10
2023-09-12T06:21:25.657Z,23.35
2023-09-12T06:24:12.692Z,23.59
2023-09-12T06:26:44.038Z,23.84
2023-09-12T06:29:15.495Z,24.00
2023-09-12T06:31:46.198Z,24.11
2023-09-12T06:34:19.984Z,24.12
2023-09-12T06:36:50.848Z,24.17
2023-09-12T06:39:21.776Z,24.20
2023-09-12T06:41:52.581Z,24.29
2023-09-12T06:44:23.275Z,24.44
2023-09-12T06:46:54.147Z,24.61
2023-09-12T06:49:25.141Z,24.73
2023-09-12T06:51:55.976Z,24.82
2023-09-12T06:54:26.658Z,24.95
2023-09-12T06:56:57.391Z,25.04
2023-09-12T06:59:28.205Z,25.14
2023-09-12T07:01:58.949Z,25.18
2023-09-12T07:04:29.789Z,25.28
2023-09-12T07:07:00.642Z,25.40
2023-09-12T07:09:31.437Z,25.49
2023-09-12T07:12:02.323Z,25.51
2023-09-12T07:14:32.979Z,25.70
2023-09-12T07:17:03.868Z,25.86
2023-09-12T07:19:34.509Z,25.97
2023-09-12T07:22:05.839Z,26.05
2023-09-12T07:24:36.669Z,26.27
2023-09-12T07:27:08.098Z,26.38
2023-09-12T07:29:40.268Z,26.42
2023-09-12T07:32:11.267Z,26.50
2023-09-12T07:34:44.221Z,26.65
2023-09-12T07:37:14.821Z,26.83
2023-09-12T07:39:45.582Z,26.91
2023-09-12T07:42:16.352Z,27.04
2023-09-12T07:45:08.149Z,27.15
2023-09-12T07:47:38.855Z,27.26
2023-09-12T07:50:11.248Z,27.31
2023-09-12T07:52:42.017Z,27.42
2023-09-12T07:55:13.462Z,27.54
2023-09-12T07:57:56.409Z,27.51
2023-09-12T08:00:27.728Z,27.52
2023-09-12T08:02:58.553Z,27.55
2023-09-12T08:05:29.319Z,27.64
2023-09-12T08:08:00.187Z,27.73
2023-09-12T08:10:31.369Z,27.82
2023-09-12T08:13:02.380Z,27.95
2023-09-12T08:15:33.054Z,27.99
2023-09-12T08:18:04.100Z,28.02
2023-09-12T08:20:34.959Z,28.14
2023-09-12T08:23:05.874Z,28.28
2023-09-12T08:25:36.742Z,28.42
2023-09-12T08:28:08.114Z,28.54
2023-09-12T08:30:38.850Z,28.63
2023-09-12T08:33:09.643Z,28.74
2023-09-12T08:35:40.354Z,28.76
2023-09-12T08:38:11.490Z,28.79
2023-09-12T08:40:43.329Z,28.77
2023-09-12T08:43:14.158Z,28.79
2023-09-12T08:45:46.006Z,28.83
2023-09-12T08:48:17.848Z,28.84
2023-09-12T08:50:51.883Z,28.89
2023-09-12T08:53:23.778Z,28.95
2023-09-12T08:55:55.707Z,28.94
2023-09-12T08:58:26.957Z,28.87
2023-09-12T09:00:58.133Z,28.85
2023-09-12T09:03:29.301Z,28.89
2023-09-12T09:06:02.577Z,28.95
2023-09-12T09:08:33.843Z,29.03
2023-09-12T09:11:06.937Z,29.15
2023-09-12T09:13:37.609Z,29.24
2023-09-12T09:16:16.140Z,29.32
2023-09-12T09:18:58.904Z,29.40
2023-09-12T09:21:32.009Z,29.45
2023-09-12T09:24:04.813Z,29.48
2023-09-12T09:26:47.100Z,29.50
2023-09-12T09:29:20.105Z,29.58
2023-09-12T09:31:52.606Z,29.64
2023-09-12T09:34:25.261Z,29.66
2023-09-12T09:36:58.012Z,29.75
2023-09-12T09:39:30.527Z,29.81
2023-09-12T09:42:01.672Z,29.87
2023-09-12T09:44:33.339Z,29.94
2023-09-12T09:47:07.386Z,29.99
2023-09-12T09:49:38.655Z,30.06
2023-09-12T09:52:09.906Z,30.15
2023-09-12T09:54:47.644Z,30.22
2023-09-12T09:57:18.601Z,30.27
2023-09-12T09:59:52.861Z,30.36
2023-09-12T10:02:28.061Z,30.48
2023-09-12T10:05:01.408Z,30.58
2023-09-12T10:07:35.520Z,30.62
2023-09-12T10:10:07.899Z,30.63
2023-09-12T10:12:47.160Z,30.63
2023-09-12T10:15:23.534Z,30.55
2023-09-12T10:18:00.937Z,30.50
2023-09-12T10:20:39.936Z,30.55
2023-09-12T10:23:14.350Z,30.65
2023-09-12T10:25:47.505Z,30.71
2023-09-12T10:28:19.641Z,30.76
2023-09-12T10:30:51.777Z,30.74
2023-09-12T10:33:23.353Z,30.65
2023-09-12T10:35:54.713Z,30.60
2023-09-12T10:38:28.653Z,30.57
2023-09-12T10:41:01.173Z,30.58
2023-09-12T10:43:34.898Z,30.60
2023-09-12T10:46:06.116Z,30.59
2023-09-12T10:48:38.669Z,30.56
2023-09-12T10:51:10.985Z,30.56
2023-09-12T10:53:47.211Z,30.59
2023-09-12T10:56:30.551Z,30.59
2023-09-12T10:59:17.827Z,30.58
2023-09-12T11:01:49.868Z,30.58
2023-09-12T11:04:38.838Z,30.61
2023-09-12T11:07:46.170Z,30.63
2023-09-12T11:10:27.072Z,30.66
2023-09-12T11:12:59.097Z,30.66
2023-09-12T11:15:32.494Z,30.64
2023-09-12T11:18:07.944Z,30.67
2023-09-12T11:21:04.630Z,30.68
2023-09-12T11:23:36.925Z,30.69
2023-09-12T11:26:08.950Z,30.68
2023-09-12T11:28:40.625Z,30.66
2023-09-12T11:31:12.291Z,30.61
2023-09-12T11:33:44.673Z,30.58
2023-09-12T11:36:20.867Z,30.57
2023-09-12T11:38:54.114Z,30.55
2023-09-12T11:41:44.501Z,30.51
2023-09-12T11:44:16.148Z,30.48
2023-09-12T11:46:49.829Z,30.51
2023-09-12T11:49:22.032Z,30.55
2023-09-12T11:51:54.769Z,30.57
2023-09-12T11:54:33.103Z,30.53
2023-09-12T11:57:05.625Z,30.51
2023-09-12T11:59:38.928Z,30.53
2023-09-12T12:02:12.248Z,30.55
2023-09-12T12:04:43.459Z,30.55
2023-09-12T12:07:15.100Z,30.55
2023-09-12T12:09:46.102Z,30.53
2023-09-12T12:12:17.888Z,30.53
2023-09-12T12:14:48.710Z,30.51
2023-09-12T12:17:19.416Z,30.51
2023-09-12T12:19:50.902Z,30.51
2023-09-12T12:22:22.001Z,30.50
2023-09-12T12:24:53.668Z,30.48
2023-09-12T12:27:24.427Z,30.45
2023-09-12T12:29:55.646Z,30.35
2023-09-12T12:32:26.809Z,30.31
2023-09-12T12:35:43.792Z,30.31
2023-09-12T12:37:53.665Z,30.30
2023-09-12T12:40:34.311Z,30.26
2023-09-12T12:43:18.071Z,30.23
2023-09-12T12:46:00.644Z,30.17
2023-09-12T12:48:35.750Z,30.12
2023-09-12T12:51:19.457Z,30.11
2023-09-12T12:53:53.480Z,30.11
2023-09-12T12:56:31.171Z,30.10
2023-09-12T12:59:07.900Z,30.10
2023-09-12T13:01:40.839Z,30.09
2023-09-12T13:04:12.050Z,30.07
2023-09-12T13:06:43.674Z,30.02
2023-09-12T13:09:13.673Z,29.98
2023-09-12T13:11:43.689Z,29.94
2023-09-12T13:14:14.452Z,29.90
2023-09-12T13:16:45.218Z,29.85
2023-09-12T13:19:15.960Z,29.82
2023-09-12T13:21:46.822Z,29.81
2023-09-12T13:24:17.558Z,29.79
2023-09-12T13:26:48.507Z,29.75
2023-09-12T13:29:19.328Z,29.73
2023-09-12T13:31:50.239Z,29.72
2023-09-12T13:34:21.449Z,29.70
2023-09-12T13:37:05.805Z,29.71
2023-09-12T13:39:41.327Z,29.72
2023-09-12T13:42:12.060Z,29.69
2023-09-12T13:44:42.967Z,29.70
2023-09-12T13:47:13.706Z,29.72
2023-09-12T13:49:44.472Z,29.75
2023-09-12T13:52:16.106Z,29.74
2023-09-12T13:54:45.348Z,29.75
2023-09-12T13:57:16.228Z,29.75
2023-09-12T13:59:47.159Z,29.74
2023-09-12T14:02:19.811Z,29.72
2023-09-12T14:05:00.889Z,29.67
2023-09-12T14:07:38.173Z,29.61
2023-09-12T14:10:12.656Z,29.53
2023-09-12T14:12:48.040Z,29.49
2023-09-12T14:15:18.969Z,29.45
2023-09-12T14:17:56.299Z,29.43
2023-09-12T14:20:28.245Z,29.41
2023-09-12T14:22:59.496Z,29.38
2023-09-12T14:25:30.469Z,29.37
2023-09-12T14:28:01.554Z,29.35
2023-09-12T14:30:36.436Z,29.35
2023-09-12T14:33:08.302Z,29.32
2023-09-12T14:35:39.179Z,29.30
2023-09-12T14:38:09.981Z,29.28
2023-09-12T14:40:44.134Z,29.25
2023-09-12T14:43:16.463Z,29.21
2023-09-12T14:45:47.655Z,29.17
2023-09-12T14:48:18.721Z,29.13
2023-09-12T14:50:50.378Z,29.10
2023-09-12T14:53:19.973Z,29.08
2023-09-12T14:55:50.690Z,29.03
2023-09-12T14:58:21.566Z,28.96
2023-09-12T15:00:56.550Z,28.94
2023-09-12T15:03:30.616Z,28.89
2023-09-12T15:06:01.573Z,28.83
2023-09-12T15:08:32.364Z,28.79
2023-09-12T15:11:03.063Z,28.75
2023-09-12T15:13:33.778Z,28.72
2023-09-12T15:16:05.381Z,28.70
2023-09-12T15:18:38.420Z,28.68
2023-09-12T15:21:09.247Z,28.64
2023-09-12T15:23:40.212Z,28.63
2023-09-12T15:26:11.102Z,28.57
2023-09-12T15:28:41.928Z,28.58
2023-09-12T15:31:13.012Z,28.56
2023-09-12T15:33:46.226Z,28.54
2023-09-12T15:36:17.148Z,28.52
2023-09-12T15:38:47.852Z,28.50
2023-09-12T15:41:26.679Z,28.46
2023-09-12T15:44:12.604Z,28.41
2023-09-12T15:46:49.266Z,28.38
2023-09-12T15:49:20.360Z,28.37
2023-09-12T15:51:51.695Z,28.35
2023-09-12T15:54:22.394Z,28.33
2023-09-12T15:56:53.495Z,28.32
2023-09-12T15:59:26.454Z,28.31
2023-09-12T16:01:57.524Z,28.31
2023-09-12T16:04:28.602Z,28.32
2023-09-12T16:06:59.538Z,28.30
2023-09-12T16:09:30.401Z,28.28
2023-09-12T16:12:01.203Z,28.27
2023-09-12T16:14:32.054Z,28.25
2023-09-12T16:17:03.435Z,28.23
2023-09-12T16:19:34.547Z,28.21
2023-09-12T16:22:07.038Z,28.19
2023-09-12T16:24:38.801Z,28.18
2023-09-12T16:27:10.289Z,28.15
2023-09-12T16:29:41.130Z,28.13
2023-09-12T16:32:11.987Z,28.09
2023-09-12T16:34:43.230Z,28.03
2023-09-12T16:37:14.151Z,27.99
2023-09-12T16:39:44.879Z,27.93
2023-09-12T16:42:15.743Z,27.87
2023-09-12T16:44:46.589Z,27.78
2023-09-12T16:47:17.518Z,27.72
2023-09-12T16:49:49.474Z,27.66
2023-09-12T16:52:20.235Z,27.62
2023-09-12T16:54:51.357Z,27.57
2023-09-12T16:57:25.215Z,27.51
2023-09-12T16:59:55.967Z,27.45
2023-09-12T17:02:27.368Z,27.36
2023-09-12T17:04:58.346Z,27.27
2023-09-12T17:07:29.571Z,27.17
2023-09-12T17:10:00.508Z,27.05
2023-09-12T17:12:31.523Z,26.94
2023-09-12T17:15:03.405Z,26.86
2023-09-12T17:17:33.064Z,26.79
2023-09-12T17:20:04.322Z,26.72
2023-09-12T17:22:35.088Z,26.65
2023-09-12T17:25:06.770Z,26.59
2023-09-12T17:27:38.690Z,26.51
2023-09-12T17:30:12.111Z,26.43
2023-09-12T17:32:42.812Z,26.36
2023-09-12T17:35:14.540Z,26.29
2023-09-12T17:37:48.847Z,26.22
2023-09-12T17:40:20.078Z,26.14
2023-09-12T17:42:50.808Z,26.08
2023-09-12T17:45:21.773Z,26.01
2023-09-12T17:47:54.461Z,25.93
2023-09-12T17:50:26.678Z,25.86
2023-09-12T17:53:03.842Z,25.77
2023-09-12T17:55:35.543Z,25.70
2023-09-12T17:58:06.597Z,25.63
2023-09-12T18:00:38.007Z,25.55
2023-09-12T18:03:09.366Z,25.47
2023-09-12T18:05:40.249Z,25.41
2023-09-12T18:08:11.239Z,25.34
2023-09-12T18:10:41.888Z,25.27
2023-09-12T18:13:12.764Z,25.21
2023-09-12T18:15:43.570Z,25.16
2023-09-12T18:18:14.316Z,25.13
2023-09-12T18:20:45.536Z,25.10
2023-09-12T18:23:17.645Z,25.06
2023-09-12T18:25:48.486Z,25.03
2023-09-12T18:28:40.352Z,24.99
2023-09-12T18:31:11.933Z,24.96
2023-09-12T18:33:43.401Z,24.92
2023-09-12T18:36:15.005Z,24.88
2023-09-12T18:38:46.612Z,24.81
2023-09-12T18:41:17.709Z,24.76
2023-09-12T18:43:48.494Z,24.71
2023-09-12T18:46:19.348Z,24.65
2023-09-12T18:48:50.292Z,24.54
2023-09-12T18:51:20.889Z,24.45
2023-09-12T18:53:51.778Z,24.40
2023-09-12T18:56:22.698Z,24.35
2023-09-12T18:58:53.417Z,24.29
2023-09-12T19:01:24.270Z,24.18
2023-09-12T19:03:55.293Z,24.05
2023-09-12T19:06:26.065Z,23.97
2023-09-12T19:08:56.772Z,23.93
2023-09-12T19:11:27.524Z,23.89
2023-09-12T19:13:58.279Z,23.85
2023-09-12T19:16:29.447Z,23.82
2023-09-12T19:19:00.578Z,23.80
2023-09-12T19:21:31.949Z,23.75
2023-09-12T19:24:02.737Z,23.72
2023-09-12T19:26:34.969Z,23.72
2023-09-12T19:29:06.392Z,23.72
2023-09-12T19:34:09.186Z,23.71
2023-09-12T19:36:40.378Z,23.68
2023-09-12T19:39:11.302Z,23.62
2023-09-12T19:41:42.066Z,23.56
2023-09-12T19:44:12.771Z,23.51
2023-09-12T19:46:44.308Z,23.49
2023-09-12T19:49:15.251Z,23.48
2023-09-12T19:51:46.812Z,23.48
2023-09-12T19:54:19.349Z,23.48
2023-09-12T19:56:50.194Z,23.47
2023-09-12T19:59:20.899Z,23.44
2023-09-12T20:01:52.722Z,23.40
2023-09-12T20:04:23.814Z,23.39
2023-09-12T20:06:54.608Z,23.36
2023-09-12T20:09:25.567Z,23.34
2023-09-12T20:11:57.013Z,23.32
2023-09-12T20:14:27.680Z,23.28
2023-09-12T20:16:58.483Z,23.26
2023-09-12T20:19:29.182Z,23.22
2023-09-12T20:21:59.925Z,23.19
2023-09-12T20:24:30.753Z,23.15
2023-09-12T20:27:01.482Z,23.12
2023-09-12T20:29:32.373Z,23.10
2023-09-12T20:32:03.228Z,23.08
2023-09-12T20:34:34.035Z,23.07
2023-09-12T20:37:05.398Z,23.04
2023-09-12T20:39:36.308Z,23.01
2023-09-12T20:42:07.941Z,23.00
2023-09-12T20:44:38.812Z,22.98
2023-09-12T20:47:09.629Z,22.96
2023-09-12T20:49:42.905Z,22.96
2023-09-12T20:52:13.773Z,22.97
2023-09-12T20:54:44.543Z,22.97
2023-09-12T20:57:15.416Z,22.97
2023-09-12T20:59:46.076Z,22.96
2023-09-12T21:02:16.874Z,22.95
2023-09-12T21:04:47.665Z,22.93
2023-09-12T21:07:18.343Z,22.89
2023-09-12T21:09:49.005Z,22.85
2023-09-12T21:12:19.919Z,22.81
2023-09-12T21:14:50.671Z,22.78
2023-09-12T21:17:23.170Z,22.72
2023-09-12T21:19:53.962Z,22.66
2023-09-12T21:22:24.651Z,22.59
2023-09-12T21:24:55.637Z,22.56
2023-09-12T21:27:26.946Z,22.54
2023-09-12T21:29:57.848Z,22.47
2023-09-12T21:32:28.829Z,22.38
2023-09-12T21:35:15.944Z,22.30
2023-09-12T21:37:47.592Z,22.24
2023-09-12T21:40:19.216Z,22.26
2023-09-12T21:42:50.477Z,22.31
2023-09-12T21:45:21.571Z,22.34
2023-09-12T21:47:52.502Z,22.36
2023-09-12T21:50:24.025Z,22.38
2023-09-12T21:52:54.719Z,22.41
2023-09-12T21:55:25.919Z,22.45
2023-09-12T21:57:56.678Z,22.47
2023-09-12T22:00:29.798Z,22.53
2023-09-12T22:03:01.003Z,22.59
2023-09-12T22:05:31.915Z,22.63
2023-09-12T22:08:02.602Z,22.67
2023-09-12T22:10:34.916Z,22.69
2023-09-12T22:13:06.078Z,22.72
2023-09-12T22:15:41.820Z,22.70
2023-09-12T22:18:12.684Z,22.71
2023-09-12T22:20:43.389Z,22.73
2023-09-12T22:23:14.180Z,22.78
2023-09-12T22:25:44.830Z,22.80
2023-09-12T22:28:15.647Z,22.82
2023-09-12T22:30:46.408Z,22.83
2023-09-12T22:33:17.101Z,22.83
2023-09-12T22:36:08.424Z,22.82
2023-09-12T22:38:46.296Z,22.78
2023-09-12T22:41:16.960Z,22.73
2023-09-12T22:43:47.730Z,22.70
2023-09-12T22:46:18.454Z,22.64
2023-09-12T22:48:49.223Z,22.62
2023-09-12T22:51:19.845Z,22.60
2023-09-12T22:53:50.627Z,22.56
2023-09-12T22:56:21.249Z,22.56
2023-09-12T22:58:52.294Z,22.59
2023-09-12T23:01:23.552Z,22.61
2023-09-12T23:03:54.714Z,22.63
2023-09-12T23:06:25.421Z,22.63
2023-09-12T23:08:56.103Z,22.66
2023-09-12T23:11:26.799Z,22.66
2023-09-12T23:13:58.004Z,22.67
2023-09-12T23:16:28.690Z,22.67
2023-09-12T23:18:59.423Z,22.65
2023-09-12T23:21:31.027Z,22.59
2023-09-12T23:24:01.814Z,22.48
2023-09-12T23:26:32.433Z,22.40
2023-09-12T23:29:03.895Z,22.36
2023-09-12T23:31:34.667Z,22.33
2023-09-12T23:34:06.015Z,22.27
2023-09-12T23:36:36.772Z,22.20
2023-09-12T23:39:07.804Z,22.19
2023-09-12T23:41:38.895Z,22.18
2023-09-12T23:44:09.682Z,22.18
2023-09-12T23:46:40.591Z,22.15
2023-09-12T23:49:11.503Z,22.12
2023-09-12T23:51:42.992Z,22.10
2023-09-12T23:54:13.724Z,22.06
2023-09-12T23:56:44.424Z,22.05
2023-09-12T23:59:15.961Z,22.06
